createdAt,value
2023-04-29T00:02:02.633Z,5.05
2023-04-29T00:04:30.260Z,5.13
2023-04-29T00:06:57.871Z,6.00
2023-04-29T00:09:25.552Z,5.75
2023-04-29T00:11:52.919Z,4.47
2023-04-29T00:14:21.640Z,4.78
2023-04-29T00:16:49.192Z,4.47
2023-04-29T00:19:18.266Z,4.03
2023-04-29T00:21:45.614Z,2.58
2023-04-29T00:24:12.982Z,1.98
2023-04-29T00:26:41.217Z,3.30
2023-04-29T00:29:08.608Z,1.67
2023-04-29T00:31:38.077Z,5.03
2023-04-29T00:34:05.734Z,5.10
2023-04-29T00:36:33.248Z,4.72
2023-04-29T00:39:00.669Z,1.50
2023-04-29T00:41:28.279Z,1.95
2023-04-29T00:43:56.271Z,5.55
2023-04-29T00:46:23.766Z,5.90
2023-04-29T00:48:52.476Z,6.13
2023-04-29T00:51:20.240Z,4.90
2023-04-29T00:53:49.728Z,8.70
2023-04-29T00:56:17.803Z,9.13
2023-04-29T00:58:50.390Z,7.45
2023-04-29T01:01:18.251Z,7.40
2023-04-29T01:03:47.084Z,11.98
2023-04-29T01:06:25.031Z,9.55
2023-04-29T01:09:07.026Z,10.07
2023-04-29T01:11:40.813Z,16.35
2023-04-29T01:14:08.705Z,9.20
2023-04-29T01:16:43.866Z,11.52
2023-04-29T01:19:18.840Z,10.00
2023-04-29T01:21:49.881Z,10.05
2023-04-29T01:24:19.023Z,6.63
2023-04-29T01:26:52.660Z,12.02
2023-04-29T01:29:27.827Z,7.82
2023-04-29T01:32:08.766Z,12.45
2023-04-29T01:34:50.380Z,6.28
2023-04-29T01:37:20.745Z,9.65
2023-04-29T01:39:59.002Z,8.68
2023-04-29T01:42:35.663Z,14.93
2023-04-29T01:45:07.581Z,5.93
2023-04-29T01:47:37.091Z,13.95
2023-04-29T01:50:04.701Z,14.48
2023-04-29T01:52:32.128Z,11.32
2023-04-29T01:55:00.947Z,12.73
2023-04-29T01:57:28.320Z,12.02
2023-04-29T01:59:55.717Z,12.00
2023-04-29T02:02:23.558Z,9.48
2023-04-29T02:04:51.550Z,6.93
2023-04-29T02:07:19.033Z,17.13
2023-04-29T02:09:46.383Z,7.88
2023-04-29T02:12:15.092Z,16.48
2023-04-29T02:14:42.512Z,10.70
2023-04-29T02:17:10.249Z,4.18
2023-04-29T02:19:37.643Z,11.30
2023-04-29T02:22:05.148Z,10.18
2023-04-29T02:24:32.571Z,10.20
2023-04-29T02:26:59.997Z,10.65
2023-04-29T02:29:31.079Z,10.52
2023-04-29T02:31:58.541Z,10.48
2023-04-29T02:34:25.960Z,10.77
2023-04-29T02:36:53.599Z,15.25
2023-04-29T02:39:21.568Z,8.20
2023-04-29T02:41:48.998Z,8.10
2023-04-29T02:44:16.361Z,10.57
2023-04-29T02:46:48.396Z,9.82
2023-04-29T02:49:15.852Z,10.27
2023-04-29T02:51:43.675Z,9.95
2023-04-29T02:54:11.302Z,11.13
2023-04-29T02:56:38.760Z,9.13
2023-04-29T02:59:06.329Z,11.52
2023-04-29T03:01:33.780Z,11.40
2023-04-29T03:04:02.989Z,9.27
2023-04-29T03:06:31.356Z,15.07
2023-04-29T03:08:58.917Z,16.45
2023-04-29T03:11:26.324Z,17.98
2023-04-29T03:13:54.031Z,8.13
2023-04-29T03:16:22.321Z,16.27
2023-04-29T03:18:49.981Z,15.60
2023-04-29T03:21:18.787Z,7.97
2023-04-29T03:23:46.254Z,8.45
2023-04-29T03:26:13.773Z,23.35
2023-04-29T03:28:41.237Z,10.60
2023-04-29T03:31:08.805Z,7.97
2023-04-29T03:33:36.285Z,12.52
2023-04-29T03:36:04.497Z,8.95
2023-04-29T03:38:33.233Z,11.20
2023-04-29T03:41:00.706Z,13.63
2023-04-29T03:43:28.209Z,14.60
2023-04-29T03:45:55.671Z,15.77
2023-04-29T03:48:23.783Z,10.77
2023-04-29T03:50:51.455Z,9.90
2023-04-29T03:53:20.846Z,9.02
2023-04-29T03:55:49.845Z,10.50
2023-04-29T03:58:17.339Z,8.73
2023-04-29T04:00:44.777Z,9.85
2023-04-29T04:03:12.317Z,6.18
2023-04-29T04:05:40.411Z,7.05
2023-04-29T04:08:07.774Z,5.95
2023-04-29T04:10:35.242Z,5.18
2023-04-29T04:13:04.248Z,6.82
2023-04-29T04:15:31.608Z,6.05
2023-04-29T04:17:59.015Z,5.85
2023-04-29T04:20:26.825Z,5.32
2023-04-29T04:22:54.755Z,5.03
2023-04-29T04:25:22.231Z,3.72
2023-04-29T04:27:49.654Z,5.00
2023-04-29T04:30:18.450Z,5.82
2023-04-29T04:32:46.452Z,7.90
2023-04-29T04:35:14.049Z,2.33
2023-04-29T04:37:41.716Z,9.40
2023-04-29T04:40:11.330Z,5.90
2023-04-29T04:42:39.334Z,7.75
2023-04-29T04:45:09.794Z,0.60
2023-04-29T04:47:38.575Z,9.90
2023-04-29T04:50:07.489Z,6.43
2023-04-29T04:52:34.961Z,5.53
2023-04-29T04:55:02.513Z,8.57
2023-04-29T04:57:29.876Z,4.40
2023-04-29T04:59:57.328Z,6.72
2023-04-29T05:02:25.083Z,7.35
2023-04-29T05:04:56.570Z,9.80
2023-04-29T05:07:23.946Z,7.15
2023-04-29T05:09:51.528Z,6.28
2023-04-29T05:12:19.058Z,5.55
2023-04-29T05:14:46.424Z,10.43
2023-04-29T05:17:13.983Z,9.75
2023-04-29T05:19:41.466Z,6.22
2023-04-29T05:22:10.154Z,8.25
2023-04-29T05:24:37.511Z,6.82
2023-04-29T05:27:05.286Z,7.07
2023-04-29T05:29:32.727Z,7.35
2023-04-29T05:32:00.176Z,12.65
2023-04-29T05:34:27.627Z,7.28
2023-04-29T05:36:55.038Z,5.50
2023-04-29T05:39:23.856Z,5.95
2023-04-29T05:41:51.291Z,10.23
2023-04-29T05:44:18.670Z,10.65
2023-04-29T05:46:46.478Z,11.52
2023-04-29T05:49:13.911Z,5.38
2023-04-29T05:51:41.312Z,10.10
2023-04-29T05:54:08.680Z,6.53
2023-04-29T05:56:37.435Z,8.57
2023-04-29T05:59:05.035Z,8.00
2023-04-29T06:01:32.911Z,5.05
2023-04-29T06:04:00.577Z,6.53
2023-04-29T06:06:28.857Z,8.45
2023-04-29T06:08:56.684Z,8.80
2023-04-29T06:11:26.365Z,5.10
2023-04-29T06:13:55.055Z,3.65
2023-04-29T06:16:22.547Z,9.70
2023-04-29T06:18:50.420Z,3.78
2023-04-29T06:21:17.831Z,10.73
2023-04-29T06:23:45.483Z,9.98
2023-04-29T06:26:13.467Z,6.30
2023-04-29T06:28:40.856Z,10.93
2023-04-29T06:31:09.601Z,10.85
2023-04-29T06:33:37.369Z,6.20
2023-04-29T06:36:05.342Z,8.95
2023-04-29T06:38:32.761Z,13.02
2023-04-29T06:41:00.855Z,11.68
2023-04-29T06:43:28.635Z,15.88
2023-04-29T06:45:56.120Z,16.50
2023-04-29T06:48:25.367Z,14.68
2023-04-29T06:50:53.707Z,22.05
2023-04-29T06:53:21.470Z,7.07
2023-04-29T06:55:48.999Z,6.53
2023-04-29T06:58:16.968Z,21.40
2023-04-29T07:00:46.128Z,14.35
2023-04-29T07:03:14.093Z,5.47
2023-04-29T07:05:45.339Z,7.53
2023-04-29T07:08:13.608Z,9.68
2023-04-29T07:10:41.448Z,17.20
2023-04-29T07:13:08.855Z,7.53
2023-04-29T07:15:36.931Z,7.45
2023-04-29T07:18:04.889Z,10.90
2023-04-29T07:20:32.436Z,13.20
2023-04-29T07:23:04.022Z,13.52
2023-04-29T07:25:31.446Z,16.10
2023-04-29T07:27:58.840Z,8.38
2023-04-29T07:30:26.452Z,13.15
2023-04-29T07:32:54.131Z,13.35
2023-04-29T07:35:21.595Z,10.95
2023-04-29T07:37:49.161Z,16.30
2023-04-29T07:40:17.976Z,13.85
2023-04-29T07:42:45.387Z,13.27
2023-04-29T07:45:14.148Z,18.00
2023-04-29T07:47:41.619Z,14.68
2023-04-29T07:50:09.670Z,13.40
2023-04-29T07:52:37.140Z,9.98
2023-04-29T07:55:04.989Z,6.95
2023-04-29T07:57:33.687Z,8.80
2023-04-29T08:00:01.183Z,7.95
2023-04-29T08:02:28.683Z,15.32
2023-04-29T08:04:57.323Z,11.07
2023-04-29T08:07:25.279Z,13.35
2023-04-29T08:09:52.743Z,14.75
2023-04-29T08:12:20.127Z,14.75
2023-04-29T08:14:48.817Z,10.50
2023-04-29T08:17:16.165Z,12.82
2023-04-29T08:19:43.526Z,9.60
2023-04-29T08:22:12.205Z,9.10
2023-04-29T08:24:39.555Z,13.57
2023-04-29T08:27:07.033Z,6.88
2023-04-29T08:29:34.949Z,3.20
2023-04-29T08:32:03.712Z,9.68
2023-04-29T08:34:34.026Z,11.35
2023-04-29T08:37:01.525Z,11.77
2023-04-29T08:39:29.720Z,9.35
2023-04-29T08:41:57.777Z,8.15
2023-04-29T08:44:26.725Z,8.70
2023-04-29T08:46:54.190Z,7.82
2023-04-29T08:49:22.935Z,10.55
2023-04-29T08:51:51.656Z,3.78
2023-04-29T08:54:19.054Z,9.88
2023-04-29T08:56:48.000Z,4.00
2023-04-29T08:59:16.570Z,8.00
2023-04-29T09:01:49.601Z,8.98
2023-04-29T09:06:52.782Z,6.95
2023-04-29T09:09:20.990Z,10.93
2023-04-29T09:11:48.639Z,6.53
2023-04-29T09:14:16.480Z,7.00
2023-04-29T09:16:47.544Z,8.98
2023-04-29T09:19:30.436Z,5.57
2023-04-29T09:21:59.386Z,6.68
2023-04-29T09:24:27.426Z,5.45
2023-04-29T09:26:55.438Z,5.65
2023-04-29T09:29:23.964Z,3.55
2023-04-29T09:31:53.476Z,6.15
2023-04-29T09:34:33.482Z,6.35
2023-04-29T09:37:02.277Z,5.65
2023-04-29T09:39:39.544Z,4.90
2023-04-29T09:42:07.589Z,2.78
2023-04-29T09:44:36.655Z,5.10
2023-04-29T09:47:05.792Z,4.80
2023-04-29T09:49:37.339Z,4.93
2023-04-29T09:52:08.042Z,3.92
2023-04-29T09:54:37.204Z,2.08
2023-04-29T09:57:06.772Z,4.47
2023-04-29T09:59:36.143Z,3.40
2023-04-29T10:02:09.155Z,1.52
2023-04-29T10:07:10.260Z,1.23
2023-04-29T10:09:40.707Z,4.47
2023-04-29T10:12:09.288Z,4.13
2023-04-29T10:14:44.260Z,2.63
2023-04-29T10:17:16.506Z,2.28
2023-04-29T10:19:52.856Z,5.75
2023-04-29T10:22:30.376Z,3.38
2023-04-29T10:24:59.189Z,3.42
2023-04-29T10:27:28.851Z,2.60
2023-04-29T10:29:59.382Z,1.95
2023-04-29T10:32:37.010Z,3.60
2023-04-29T10:35:13.038Z,0.95
2023-04-29T10:37:42.223Z,2.78
2023-04-29T10:40:16.087Z,1.45
2023-04-29T10:42:46.478Z,1.65
2023-04-29T10:45:22.096Z,2.47
2023-04-29T10:48:14.861Z,1.17
2023-04-29T10:51:06.495Z,3.40
2023-04-29T10:53:35.813Z,4.85
2023-04-29T10:56:10.737Z,6.95
2023-04-29T10:58:42.955Z,3.58
2023-04-29T11:01:12.263Z,6.00
2023-04-29T11:04:00.906Z,3.92
2023-04-29T11:06:41.473Z,3.65
2023-04-29T11:09:13.649Z,1.35
2023-04-29T11:11:42.563Z,2.47
2023-04-29T11:14:11.020Z,5.45
2023-04-29T11:16:38.715Z,6.90
2023-04-29T11:19:07.536Z,3.67
2023-04-29T11:21:36.364Z,1.92
2023-04-29T11:24:06.066Z,2.28
2023-04-29T11:26:35.736Z,2.08
2023-04-29T11:29:03.419Z,2.08
2023-04-29T11:31:32.332Z,0.85
2023-04-29T11:34:00.266Z,2.58
2023-04-29T11:36:28.334Z,4.63
2023-04-29T11:38:55.828Z,2.42
2023-04-29T11:41:24.124Z,3.35
2023-04-29T11:43:58.652Z,5.85
2023-04-29T11:46:28.876Z,0.57
2023-04-29T11:49:01.702Z,3.55
2023-04-29T11:51:29.461Z,3.03
2023-04-29T11:53:58.123Z,5.15
2023-04-29T11:56:26.320Z,4.65
2023-04-29T11:59:01.117Z,4.82
2023-04-29T12:01:28.541Z,6.45
2023-04-29T12:03:59.866Z,4.47
2023-04-29T12:06:29.718Z,5.53
2023-04-29T12:09:00.312Z,5.05
2023-04-29T12:11:28.117Z,5.47
2023-04-29T12:13:55.892Z,2.75
2023-04-29T12:16:25.688Z,2.20
2023-04-29T12:18:54.362Z,7.22
2023-04-29T12:21:23.254Z,6.28
2023-04-29T12:23:52.332Z,5.50
2023-04-29T12:26:20.969Z,5.60
2023-04-29T12:28:49.787Z,4.40
2023-04-29T12:31:17.469Z,5.15
2023-04-29T12:33:46.295Z,3.38
2023-04-29T12:36:18.834Z,6.25
2023-04-29T12:38:48.248Z,3.72
2023-04-29T12:41:17.302Z,2.72
2023-04-29T12:43:45.242Z,4.50
2023-04-29T12:46:14.740Z,1.88
2023-04-29T12:48:43.513Z,2.60
2023-04-29T12:51:12.498Z,1.83
2023-04-29T12:53:40.812Z,2.10
2023-04-29T12:56:08.976Z,2.83
2023-04-29T12:58:36.731Z,5.25
2023-04-29T13:01:04.471Z,3.35
2023-04-29T13:03:33.169Z,4.65
2023-04-29T13:06:01.303Z,2.08
2023-04-29T13:08:30.010Z,5.05
2023-04-29T13:10:58.170Z,4.55
2023-04-29T13:13:25.642Z,4.55
2023-04-29T13:15:53.002Z,4.00
2023-04-29T13:18:20.403Z,0.00
2023-04-29T13:23:15.359Z,3.58
2023-04-29T13:25:44.089Z,5.50
2023-04-29T13:28:11.798Z,4.25
2023-04-29T13:30:39.156Z,3.67
2023-04-29T13:33:12.344Z,3.47
2023-04-29T13:35:41.645Z,2.97
2023-04-29T13:38:09.425Z,2.90
2023-04-29T13:40:41.768Z,1.67
2023-04-29T13:43:16.932Z,2.70
2023-04-29T13:45:53.105Z,0.68
2023-04-29T13:54:01.959Z,5.45
2023-04-29T14:01:44.095Z,3.50
2023-04-29T14:04:04.123Z,3.05
2023-04-29T14:06:32.689Z,3.72
2023-04-29T14:09:02.252Z,3.25
2023-04-29T14:11:31.198Z,3.63
2023-04-29T14:13:59.885Z,1.65
2023-04-29T14:16:27.719Z,2.40
2023-04-29T14:18:55.185Z,4.38
2023-04-29T14:21:22.720Z,2.80
2023-04-29T14:23:50.238Z,1.58
2023-04-29T14:26:27.719Z,2.30
2023-04-29T14:28:57.663Z,3.05
2023-04-29T14:31:27.859Z,3.97
2023-04-29T14:33:55.657Z,2.05
2023-04-29T14:36:23.102Z,1.88
2023-04-29T14:38:51.082Z,2.38
2023-04-29T14:41:18.729Z,0.77
2023-04-29T14:43:46.497Z,0.35
2023-04-29T14:46:14.156Z,0.30
2023-04-29T14:48:42.886Z,1.30
2023-04-29T14:51:10.740Z,1.48
2023-04-29T14:53:38.234Z,1.15
2023-04-29T14:56:05.869Z,0.38
2023-04-29T14:58:33.254Z,3.20
2023-04-29T15:01:01.149Z,2.35
2023-04-29T15:03:28.666Z,3.03
2023-04-29T15:05:58.727Z,1.48
2023-04-29T15:08:26.665Z,1.88
2023-04-29T15:10:54.137Z,2.53
2023-04-29T15:13:21.790Z,0.47
2023-04-29T15:15:50.016Z,2.45
2023-04-29T15:18:17.477Z,3.67
2023-04-29T15:20:44.841Z,1.65
2023-04-29T15:23:13.865Z,1.00
2023-04-29T15:25:41.349Z,0.30
2023-04-29T15:28:08.909Z,0.28
2023-04-29T15:30:36.535Z,2.05
2023-04-29T15:33:04.502Z,1.48
2023-04-29T15:35:31.960Z,2.00
2023-04-29T15:38:00.020Z,1.77
2023-04-29T15:40:29.395Z,1.85
2023-04-29T15:42:56.780Z,1.27
2023-04-29T15:45:24.158Z,0.65
2023-04-29T15:47:51.599Z,1.23
2023-04-29T15:50:18.997Z,1.23
2023-04-29T15:52:46.480Z,1.02
2023-04-29T15:55:13.863Z,2.15
2023-04-29T15:57:42.682Z,1.17
2023-04-29T16:00:11.442Z,2.35
2023-04-29T16:02:38.825Z,2.08
2023-04-29T16:05:06.993Z,0.95
2023-04-29T16:07:35.541Z,1.30
2023-04-29T16:10:04.174Z,2.08
2023-04-29T16:12:31.607Z,1.15
2023-04-29T16:15:02.989Z,1.90
2023-04-29T16:17:32.189Z,2.50
2023-04-29T16:19:59.706Z,1.35
2023-04-29T16:22:27.896Z,2.38
2023-04-29T16:24:55.347Z,1.58
2023-04-29T16:27:22.726Z,1.17
2023-04-29T16:29:50.101Z,1.63
2023-04-29T16:32:18.846Z,1.25
2023-04-29T16:34:46.270Z,3.15
2023-04-29T16:37:13.616Z,1.27
2023-04-29T16:39:41.328Z,0.73
2023-04-29T16:42:08.702Z,0.80
2023-04-29T16:44:36.108Z,1.08
2023-04-29T16:47:03.577Z,0.88
2023-04-29T16:49:32.336Z,0.38
2023-04-29T16:51:59.817Z,0.30
2023-04-29T16:54:27.601Z,0.70
2023-04-29T16:56:55.007Z,1.15
2023-04-29T16:59:22.370Z,1.40
2023-04-29T17:01:49.888Z,1.75
2023-04-29T17:04:17.370Z,0.57
2023-04-29T17:06:46.290Z,0.88
2023-04-29T17:09:13.749Z,1.08
2023-04-29T17:11:41.255Z,1.20
2023-04-29T17:14:08.866Z,2.25
2023-04-29T17:16:36.297Z,0.82
2023-04-29T17:19:03.706Z,1.30
2023-04-29T17:21:33.305Z,2.92
2023-04-29T17:24:02.081Z,1.80
2023-04-29T17:26:30.581Z,0.30
2023-04-29T17:28:58.775Z,0.25
2023-04-29T17:31:33.676Z,1.10
2023-04-29T17:34:17.987Z,1.17
2023-04-29T17:36:47.694Z,1.75
2023-04-29T17:39:16.729Z,2.63
2023-04-29T17:41:44.465Z,2.28
2023-04-29T17:44:12.133Z,1.92
2023-04-29T17:46:39.823Z,2.78
2023-04-29T17:49:07.369Z,1.27
2023-04-29T17:51:34.869Z,2.63
2023-04-29T17:54:04.642Z,1.38
2023-04-29T17:56:34.874Z,1.10
2023-04-29T17:59:02.752Z,0.70
2023-04-29T18:01:30.226Z,2.15
2023-04-29T18:03:57.801Z,1.15
2023-04-29T18:06:25.878Z,1.23
2023-04-29T18:08:53.307Z,2.58
2023-04-29T18:11:21.078Z,1.17
2023-04-29T18:13:49.913Z,0.65
2023-04-29T18:16:17.314Z,1.55
2023-04-29T18:18:44.678Z,1.08
2023-04-29T18:21:12.103Z,0.55
2023-04-29T18:23:40.560Z,1.00
2023-04-29T18:26:09.478Z,0.22
2023-04-29T18:28:36.842Z,0.43
2023-04-29T18:31:05.740Z,1.27
2023-04-29T18:33:33.380Z,0.73
2023-04-29T18:36:00.733Z,1.77
2023-04-29T18:38:28.128Z,0.22
2023-04-29T18:40:55.655Z,0.65
2023-04-29T18:43:28.176Z,0.20
2023-04-29T18:45:55.610Z,0.20
2023-04-29T18:48:26.059Z,0.50
2023-04-29T18:50:53.939Z,0.30
2023-04-29T18:53:21.457Z,0.82
2023-04-29T18:55:48.877Z,0.40
2023-04-29T18:58:16.374Z,0.85
2023-04-29T19:00:43.783Z,0.30
2023-04-29T19:03:11.432Z,2.15
2023-04-29T19:05:40.162Z,1.05
2023-04-29T19:08:08.204Z,1.10
2023-04-29T19:10:35.662Z,0.13
2023-04-29T19:13:03.034Z,0.15
2023-04-29T19:15:31.896Z,0.30
2023-04-29T19:17:59.344Z,0.10
2023-04-29T19:20:26.963Z,1.85
2023-04-29T19:22:56.646Z,1.05
2023-04-29T19:25:25.844Z,1.13
2023-04-29T19:27:53.337Z,0.10
2023-04-29T19:30:21.049Z,0.10
2023-04-29T19:32:49.282Z,0.52
2023-04-29T19:35:16.791Z,0.45
2023-04-29T19:37:44.394Z,1.58
2023-04-29T19:40:13.388Z,1.45
2023-04-29T19:42:40.924Z,0.40
2023-04-29T19:45:09.766Z,0.10
2023-04-29T19:47:37.198Z,2.08
2023-04-29T19:50:05.784Z,0.60
2023-04-29T19:52:33.405Z,1.13
2023-04-29T19:55:02.211Z,0.65
2023-04-29T19:57:31.138Z,0.68
2023-04-29T19:59:58.580Z,0.10
2023-04-29T20:02:26.952Z,2.03
2023-04-29T20:04:54.491Z,0.20
2023-04-29T20:07:21.879Z,0.20
2023-04-29T20:09:49.324Z,4.05
2023-04-29T20:12:16.864Z,0.20
2023-04-29T20:14:45.585Z,0.22
2023-04-29T20:17:13.430Z,1.27
2023-04-29T20:19:40.820Z,2.40
2023-04-29T20:22:08.182Z,0.20
2023-04-29T20:24:35.548Z,0.20
2023-04-29T20:27:03.782Z,0.30
2023-04-29T20:29:31.172Z,0.63
2023-04-29T20:31:59.998Z,0.10
2023-04-29T20:34:27.413Z,0.20
2023-04-29T20:36:54.837Z,0.20
2023-04-29T20:39:22.200Z,0.50
2023-04-29T20:41:49.922Z,0.35
2023-04-29T20:44:17.319Z,2.45
2023-04-29T20:46:46.122Z,1.75
2023-04-29T20:49:14.878Z,1.95
2023-04-29T20:51:42.487Z,1.17
2023-04-29T20:54:09.905Z,0.30
2023-04-29T20:56:37.334Z,1.05
2023-04-29T20:59:04.836Z,0.10
2023-04-29T21:01:32.618Z,0.10
2023-04-29T21:04:00.327Z,0.17
2023-04-29T21:06:29.267Z,0.20
2023-04-29T21:08:56.688Z,0.57
2023-04-29T21:11:24.531Z,0.30
2023-04-29T21:13:51.949Z,2.28
2023-04-29T21:16:21.228Z,1.38
2023-04-29T21:18:48.659Z,1.33
2023-04-29T21:21:16.056Z,2.15
2023-04-29T21:23:44.735Z,0.20
2023-04-29T21:26:14.779Z,0.10
2023-04-29T21:28:42.285Z,1.10
2023-04-29T21:31:15.124Z,1.42
2023-04-29T21:33:43.369Z,1.25
2023-04-29T21:36:10.804Z,0.20
2023-04-29T21:38:38.173Z,0.68
2023-04-29T21:41:09.872Z,0.20
2023-04-29T21:43:37.338Z,0.73
2023-04-29T21:46:07.455Z,1.55
2023-04-29T21:48:35.121Z,0.13
2023-04-29T21:51:05.310Z,0.77
2023-04-29T21:53:32.854Z,0.55
2023-04-29T21:56:00.389Z,0.20
2023-04-29T21:58:29.094Z,1.23
2023-04-29T22:01:05.292Z,0.20
2023-04-29T22:03:32.894Z,0.10
2023-04-29T22:06:00.301Z,0.20
2023-04-29T22:08:27.756Z,0.20
2023-04-29T22:10:55.152Z,0.25
2023-04-29T22:13:22.554Z,0.43
2023-04-29T22:15:51.290Z,0.55
2023-04-29T22:18:18.687Z,0.20
2023-04-29T22:20:47.123Z,0.20
2023-04-29T22:23:14.911Z,0.20
2023-04-29T22:25:42.396Z,0.95
2023-04-29T22:28:09.806Z,1.73
2023-04-29T22:30:37.198Z,2.83
2023-04-29T22:33:05.976Z,1.42
2023-04-29T22:35:33.425Z,4.68
2023-04-29T22:38:00.772Z,0.75
2023-04-29T22:40:28.541Z,0.55
2023-04-29T22:42:55.975Z,0.75
2023-04-29T22:45:23.357Z,0.52
2023-04-29T22:47:50.734Z,0.45
2023-04-29T22:50:19.655Z,0.28
2023-04-29T22:52:47.047Z,0.10
2023-04-29T22:55:14.419Z,0.20
2023-04-29T22:57:41.829Z,0.30
2023-04-29T23:00:11.048Z,0.20
2023-04-29T23:02:38.474Z,0.20
2023-04-29T23:05:07.502Z,0.30
2023-04-29T23:07:36.506Z,0.20
2023-04-29T23:10:03.996Z,0.52
2023-04-29T23:12:31.344Z,0.57
2023-04-29T23:14:58.691Z,1.08
2023-04-29T23:17:26.137Z,0.90
2023-04-29T23:19:53.659Z,0.57
2023-04-29T23:22:21.176Z,0.20
2023-04-29T23:24:49.861Z,0.50
2023-04-29T23:27:17.208Z,0.43
2023-04-29T23:29:44.554Z,0.40
2023-04-29T23:32:12.004Z,0.20
2023-04-29T23:34:39.402Z,0.20
2023-04-29T23:37:06.849Z,0.10
2023-04-29T23:39:34.273Z,0.75
2023-04-29T23:42:03.547Z,0.32
2023-04-29T23:44:30.966Z,0.10
2023-04-29T23:46:58.342Z,0.20
2023-04-29T23:49:25.687Z,0.10
2023-04-29T23:51:53.087Z,0.13
2023-04-29T23:54:20.934Z,0.45
2023-04-29T23:56:48.374Z,1.98
2023-04-29T23:59:17.104Z,0.20
